createdAt,value
2023-05-15T00:02:33.851Z,194.97
2023-05-15T00:10:45.027Z,196.05
2023-05-15T00:14:53.757Z,196.10
2023-05-15T00:18:56.796Z,193.88
2023-05-15T00:22:59.787Z,196.80
2023-05-15T00:27:04.446Z,194.73
2023-05-15T00:31:08.691Z,196.30
2023-05-15T00:35:11.754Z,197.70
2023-05-15T00:39:14.744Z,196.05
2023-05-15T00:43:20.161Z,196.00
2023-05-15T00:47:25.933Z,195.85
2023-05-15T00:51:28.978Z,197.50
2023-05-15T00:55:33.278Z,195.40
2023-05-15T00:59:40.034Z,197.00
2023-05-15T01:03:43.354Z,195.25
2023-05-15T01:07:53.149Z,197.10
2023-05-15T01:12:00.434Z,197.30
2023-05-15T01:16:06.221Z,196.57
2023-05-15T01:20:12.046Z,195.70
2023-05-15T01:24:34.571Z,194.83
2023-05-15T01:28:42.617Z,197.05
2023-05-15T01:32:55.259Z,194.00
2023-05-15T01:37:01.035Z,197.27
2023-05-15T01:41:11.689Z,197.70
2023-05-15T01:45:16.370Z,197.00
2023-05-15T01:49:21.045Z,196.95
2023-05-15T01:53:24.316Z,196.57
2023-05-15T01:57:29.195Z,196.10
2023-05-15T02:01:34.439Z,197.40
2023-05-15T02:05:39.315Z,198.10
2023-05-15T07:38:45.716Z,194.40
2023-05-15T07:42:48.683Z,194.95
2023-05-15T07:46:52.994Z,196.10
2023-05-15T07:50:57.182Z,195.00
2023-05-15T07:55:01.328Z,195.70
2023-05-15T08:35:36.899Z,198.55
2023-05-15T08:39:39.884Z,198.20
2023-05-15T08:43:44.024Z,197.65
2023-05-15T08:47:47.218Z,199.27
2023-05-15T08:51:52.055Z,197.90
2023-05-15T08:55:55.161Z,199.70
2023-05-15T08:59:58.841Z,200.00
2023-05-15T09:04:01.922Z,200.60
2023-05-15T09:08:07.955Z,200.93
2023-05-15T09:12:12.265Z,200.15
2023-05-15T09:16:15.362Z,201.35
2023-05-15T09:20:27.825Z,201.47
2023-05-15T09:24:32.290Z,203.25
2023-05-15T09:28:36.047Z,202.40
2023-05-15T09:32:39.815Z,203.55
2023-05-15T09:36:45.939Z,204.53
2023-05-15T09:40:50.333Z,204.10
2023-05-15T09:44:53.317Z,206.02
2023-05-15T09:48:56.605Z,202.23
2023-05-15T09:53:00.718Z,217.02
2023-05-15T10:01:13.469Z,205.05
2023-05-15T10:05:25.911Z,207.50
2023-05-15T10:09:35.025Z,206.75
2023-05-15T10:13:39.648Z,205.90
2023-05-15T10:17:45.361Z,207.70
2023-05-15T14:42:12.984Z,208.97
2023-05-15T14:46:15.969Z,209.35
2023-05-15T14:50:20.425Z,208.57
2023-05-15T14:54:23.410Z,208.07
2023-05-15T14:58:26.533Z,209.07
2023-05-15T15:06:33.970Z,208.70
2023-05-15T16:31:48.699Z,206.20
2023-05-15T16:35:52.018Z,206.30
2023-05-15T16:39:55.075Z,206.90
2023-05-15T16:43:59.450Z,207.13
2023-05-15T16:48:02.725Z,206.55
2023-05-15T16:52:06.218Z,204.93
2023-05-15T16:56:12.334Z,204.73
2023-05-15T17:00:17.722Z,205.05
2023-05-15T17:04:20.788Z,205.35
2023-05-15T17:08:23.760Z,204.68
2023-05-15T17:12:26.861Z,201.85
2023-05-15T17:16:31.346Z,201.90
2023-05-15T17:20:34.371Z,199.32
2023-05-15T17:28:54.189Z,205.10
2023-05-15T17:32:59.589Z,204.40
2023-05-15T17:37:02.707Z,204.02
2023-05-15T17:41:08.082Z,205.30
2023-05-15T17:45:12.390Z,200.13
2023-05-15T17:49:17.819Z,203.77
2023-05-15T17:53:22.675Z,202.60
2023-05-15T17:57:25.657Z,201.13
2023-05-15T18:01:29.719Z,201.37
2023-05-15T18:05:42.371Z,201.60
2023-05-15T18:09:45.409Z,201.50
2023-05-15T18:13:48.403Z,199.47
2023-05-15T18:17:51.412Z,201.50
2023-05-15T18:21:56.315Z,198.60
2023-05-15T18:25:59.289Z,200.73
2023-05-15T18:30:02.971Z,199.25
2023-05-15T18:34:05.956Z,199.95
2023-05-15T18:38:10.467Z,200.50
2023-05-15T18:42:13.437Z,201.37
2023-05-15T18:46:16.556Z,198.85
2023-05-15T18:50:19.756Z,198.17
2023-05-15T18:54:24.101Z,201.20
2023-05-15T18:58:27.118Z,200.45
2023-05-15T19:02:30.194Z,200.30
2023-05-15T19:39:00.086Z,198.40
2023-05-15T20:56:07.935Z,194.40
2023-05-15T21:00:11.847Z,195.32
2023-05-15T21:04:16.277Z,195.73
2023-05-15T21:08:19.461Z,193.20
2023-05-15T21:32:39.060Z,194.45
2023-05-15T21:36:44.681Z,195.80
2023-05-15T21:40:47.868Z,195.43
2023-05-15T21:44:50.930Z,192.60
2023-05-15T21:48:54.974Z,195.93
2023-05-15T21:52:59.344Z,195.90
2023-05-15T21:57:02.327Z,196.15
2023-05-15T22:01:05.749Z,193.67
2023-05-15T22:05:09.208Z,193.40
2023-05-15T22:09:14.614Z,196.00
2023-05-15T22:13:17.720Z,195.57
2023-05-15T22:17:27.238Z,196.77
2023-05-15T22:21:30.362Z,195.80
